createdAt,value
2019-05-14T00:00:43.022Z,0.00
2019-05-14T00:01:43.029Z,0.00
2019-05-14T00:02:43.007Z,0.00
2019-05-14T00:03:42.992Z,0.00
2019-05-14T00:04:42.986Z,0.00
2019-05-14T00:05:42.972Z,0.00
2019-05-14T00:06:42.981Z,0.00
2019-05-14T00:07:42.950Z,0.00
2019-05-14T00:08:42.952Z,0.00
2019-05-14T00:09:42.932Z,0.00
2019-05-14T00:10:42.928Z,0.00
2019-05-14T00:11:42.929Z,0.00
2019-05-14T00:12:42.895Z,0.00
2019-05-14T00:13:42.887Z,0.00
2019-05-14T00:14:43.976Z,0.00
2019-05-14T00:15:42.870Z,0.00
2019-05-14T00:16:42.879Z,0.00
2019-05-14T00:17:42.850Z,0.00
2019-05-14T00:18:42.837Z,0.00
2019-05-14T00:19:42.826Z,0.00
2019-05-14T00:20:42.822Z,0.00
2019-05-14T00:21:42.823Z,0.00
2019-05-14T00:22:42.804Z,0.00
2019-05-14T00:23:42.780Z,0.00
2019-05-14T00:24:42.774Z,0.00
2019-05-14T00:25:42.760Z,0.00
2019-05-14T00:26:42.892Z,0.00
2019-05-14T00:27:42.748Z,0.00
2019-05-14T00:28:42.761Z,0.00
2019-05-14T00:29:42.724Z,0.00
2019-05-14T00:30:42.715Z,0.00
2019-05-14T00:31:42.846Z,0.00
2019-05-14T00:32:42.699Z,0.00
2019-05-14T00:33:42.687Z,0.00
2019-05-14T00:34:42.708Z,0.00
2019-05-14T00:35:42.655Z,0.00
2019-05-14T00:36:42.661Z,0.00
2019-05-14T00:37:42.635Z,0.00
2019-05-14T00:38:42.628Z,0.00
2019-05-14T00:39:42.623Z,0.00
2019-05-14T00:40:42.613Z,0.00
2019-05-14T00:41:42.622Z,0.00
2019-05-14T00:42:42.586Z,0.00
2019-05-14T00:43:42.572Z,0.00
2019-05-14T00:44:53.601Z,0.00
2019-05-14T00:45:43.548Z,0.00
2019-05-14T00:46:42.569Z,0.00
2019-05-14T00:47:42.538Z,0.00
2019-05-14T00:48:42.522Z,0.00
2019-05-14T00:49:42.723Z,0.00
2019-05-14T00:50:42.505Z,0.00
2019-05-14T00:51:42.524Z,0.00
2019-05-14T00:52:46.103Z,0.00
2019-05-14T00:53:42.474Z,0.00
2019-05-14T00:54:42.461Z,0.00
2019-05-14T00:55:42.446Z,0.00
2019-05-14T00:56:42.444Z,0.00
2019-05-14T00:57:42.843Z,0.00
2019-05-14T00:58:42.415Z,0.00
2019-05-14T00:59:42.413Z,0.00
2019-05-14T01:00:42.398Z,0.00
2019-05-14T01:01:42.675Z,0.00
2019-05-14T01:02:42.387Z,0.00
2019-05-14T01:03:42.382Z,0.00
2019-05-14T01:04:42.976Z,0.00
2019-05-14T01:05:42.350Z,0.00
2019-05-14T01:06:42.335Z,0.00
2019-05-14T01:07:42.520Z,0.00
2019-05-14T01:08:42.328Z,0.00
2019-05-14T01:09:42.368Z,0.00
2019-05-14T01:10:42.288Z,0.00
2019-05-14T01:11:42.286Z,0.00
2019-05-14T01:12:42.274Z,0.00
2019-05-14T01:13:42.283Z,0.00
2019-05-14T01:14:42.648Z,0.00
2019-05-14T01:15:42.236Z,0.00
2019-05-14T01:16:42.569Z,0.00
2019-05-14T01:17:42.343Z,0.00
2019-05-14T01:18:42.202Z,0.00
2019-05-14T01:19:42.686Z,0.00
2019-05-14T01:20:42.205Z,0.00
2019-05-14T01:21:42.168Z,0.00
2019-05-14T01:22:42.414Z,0.00
2019-05-14T01:23:42.149Z,0.00
2019-05-14T01:24:42.154Z,0.00
2019-05-14T01:25:42.304Z,0.00
2019-05-14T01:26:42.135Z,0.00
2019-05-14T01:27:42.101Z,0.00
2019-05-14T01:28:42.089Z,0.00
2019-05-14T01:29:42.629Z,0.00
2019-05-14T01:30:42.072Z,0.00
2019-05-14T01:31:42.075Z,0.00
2019-05-14T01:32:42.261Z,0.00
2019-05-14T01:33:42.045Z,0.00
2019-05-14T01:34:42.260Z,0.00
2019-05-14T01:35:42.177Z,0.00
2019-05-14T01:36:42.013Z,0.00
2019-05-14T01:37:42.008Z,0.00
2019-05-14T01:38:42.055Z,0.00
2019-05-14T01:39:42.197Z,0.00
2019-05-14T01:40:42.141Z,0.00
2019-05-14T01:41:42.520Z,0.00
2019-05-14T01:42:41.938Z,0.00
2019-05-14T01:43:42.119Z,0.00
2019-05-14T01:44:41.924Z,0.00
2019-05-14T01:45:41.938Z,0.00
2019-05-14T01:46:42.193Z,0.00
2019-05-14T01:47:41.888Z,0.00
2019-05-14T01:48:41.953Z,0.00
2019-05-14T01:49:42.821Z,0.00
2019-05-14T01:50:41.863Z,0.00
2019-05-14T01:51:42.515Z,0.00
2019-05-14T01:52:41.853Z,0.00
2019-05-14T01:53:41.902Z,0.00
2019-05-14T01:54:42.700Z,0.00
2019-05-14T01:55:41.810Z,0.00
2019-05-14T01:56:42.475Z,0.00
2019-05-14T01:57:42.523Z,0.00
2019-05-14T01:58:41.917Z,0.00
2019-05-14T01:59:42.938Z,0.00
2019-05-14T02:00:41.793Z,0.00
2019-05-14T02:01:41.841Z,0.00
2019-05-14T02:02:41.971Z,0.00
2019-05-14T02:03:41.726Z,0.00
2019-05-14T02:04:42.790Z,0.00
2019-05-14T02:05:41.797Z,0.00
2019-05-14T02:06:41.700Z,0.00
2019-05-14T02:07:42.107Z,0.00
2019-05-14T02:08:41.664Z,0.00
2019-05-14T02:09:42.127Z,0.00
2019-05-14T02:10:42.055Z,0.00
2019-05-14T02:11:41.826Z,0.00
2019-05-14T02:12:42.331Z,0.00
2019-05-14T02:13:41.613Z,0.00
2019-05-14T02:14:42.478Z,0.00
2019-05-14T02:15:42.940Z,0.00
2019-05-14T02:16:42.241Z,0.00
2019-05-14T02:17:41.685Z,0.00
2019-05-14T02:18:41.757Z,0.00
2019-05-14T02:19:42.557Z,0.00
2019-05-14T02:20:41.579Z,0.00
2019-05-14T02:21:42.565Z,0.00
2019-05-14T02:22:41.869Z,0.00
2019-05-14T02:23:42.084Z,0.00
2019-05-14T02:24:41.968Z,0.00
2019-05-14T02:25:41.481Z,0.00
2019-05-14T02:26:42.453Z,0.00
2019-05-14T02:27:41.575Z,0.00
2019-05-14T02:28:42.125Z,0.00
2019-05-14T02:29:41.795Z,0.00
2019-05-14T02:30:51.517Z,0.00
2019-05-14T02:31:42.415Z,0.00
2019-05-14T02:32:41.413Z,0.00
2019-05-14T02:33:41.416Z,4.00
2019-05-14T02:34:41.401Z,4.00
2019-05-14T02:35:41.391Z,4.00
2019-05-14T02:36:41.370Z,4.00
2019-05-14T02:37:41.360Z,4.00
2019-05-14T02:38:41.363Z,4.00
2019-05-14T02:39:41.517Z,8.00
2019-05-14T02:40:41.327Z,4.00
2019-05-14T02:41:41.318Z,8.00
2019-05-14T02:42:41.328Z,8.00
2019-05-14T02:43:41.304Z,8.00
2019-05-14T02:44:41.281Z,12.00
2019-05-14T02:46:00.879Z,16.00
2019-05-14T02:46:42.266Z,16.00
2019-05-14T02:47:41.257Z,16.00
2019-05-14T02:48:41.261Z,20.00
2019-05-14T02:49:41.235Z,24.00
2019-05-14T02:50:41.225Z,28.00
2019-05-14T02:51:41.209Z,32.00
2019-05-14T02:52:41.197Z,32.00
2019-05-14T02:53:41.206Z,40.00
2019-05-14T02:54:41.175Z,44.00
2019-05-14T02:55:41.179Z,48.00
2019-05-14T02:56:41.160Z,56.00
2019-05-14T02:57:41.166Z,64.00
2019-05-14T02:58:41.175Z,72.00
2019-05-14T02:59:41.126Z,80.00
2019-05-14T03:00:41.119Z,92.00
2019-05-14T03:01:41.108Z,104.00
2019-05-14T03:02:41.099Z,112.00
2019-05-14T03:03:41.079Z,128.00
2019-05-14T03:04:41.099Z,140.00
2019-05-14T03:05:41.060Z,152.00
2019-05-14T03:06:41.049Z,172.00
2019-05-14T03:07:41.041Z,188.00
2019-05-14T03:08:41.032Z,208.00
2019-05-14T03:09:41.018Z,228.00
2019-05-14T03:10:41.025Z,248.00
2019-05-14T03:11:41.003Z,272.00
2019-05-14T03:12:40.998Z,292.00
2019-05-14T03:13:40.980Z,320.00
2019-05-14T03:14:40.981Z,348.00
2019-05-14T03:15:40.987Z,376.00
2019-05-14T03:16:40.993Z,404.00
2019-05-14T03:17:40.940Z,436.00
2019-05-14T03:18:40.945Z,464.00
2019-05-14T03:19:41.217Z,500.00
2019-05-14T03:20:40.915Z,532.00
2019-05-14T03:21:40.911Z,568.00
2019-05-14T03:22:54.892Z,604.00
2019-05-14T03:23:41.868Z,644.00
2019-05-14T03:24:40.854Z,680.00
2019-05-14T03:25:40.847Z,724.00
2019-05-14T03:26:40.864Z,760.00
2019-05-14T03:27:40.843Z,800.00
2019-05-14T03:28:40.822Z,844.00
2019-05-14T03:29:40.816Z,884.00
2019-05-14T03:30:42.771Z,928.00
2019-05-14T03:31:42.509Z,968.00
2019-05-14T03:32:42.426Z,1016.00
2019-05-14T03:33:44.031Z,1064.00
2019-05-14T03:34:42.821Z,1104.00
2019-05-14T03:35:49.146Z,1148.00
2019-05-14T03:36:43.503Z,1196.00
2019-05-14T03:37:40.730Z,1240.00
2019-05-14T03:38:40.710Z,1288.00
2019-05-14T03:39:40.703Z,1328.00
2019-05-14T03:40:40.694Z,1376.00
2019-05-14T03:41:40.698Z,1420.00
2019-05-14T03:42:40.693Z,1464.00
2019-05-14T03:43:40.653Z,1508.00
2019-05-14T03:44:40.669Z,1556.00
2019-05-14T03:45:40.638Z,1596.00
2019-05-14T03:46:49.612Z,1640.00
2019-05-14T03:47:41.615Z,1684.00
2019-05-14T03:48:40.610Z,1732.00
2019-05-14T03:49:40.604Z,1776.00
2019-05-14T03:50:40.587Z,1820.00
2019-05-14T03:51:40.601Z,1868.00
2019-05-14T03:52:40.573Z,1908.00
2019-05-14T03:53:55.088Z,1956.00
2019-05-14T03:54:41.542Z,2000.00
2019-05-14T03:55:40.810Z,2044.00
2019-05-14T03:56:40.518Z,2092.00
2019-05-14T03:57:40.523Z,2132.00
2019-05-14T03:58:40.513Z,2172.00
2019-05-14T03:59:40.847Z,2216.00
2019-05-14T04:00:40.477Z,2260.00
2019-05-14T04:01:40.519Z,2300.00
2019-05-14T04:02:40.476Z,2336.00
2019-05-14T04:03:40.469Z,2380.00
2019-05-14T04:04:40.439Z,2416.00
2019-05-14T04:05:40.438Z,2460.00
2019-05-14T04:06:40.552Z,2496.00
2019-05-14T04:07:40.409Z,2532.00
2019-05-14T04:08:40.411Z,2572.00
2019-05-14T04:09:40.382Z,2608.00
2019-05-14T04:10:49.100Z,2648.00
2019-05-14T04:11:41.362Z,2684.00
2019-05-14T04:12:40.569Z,2724.00
2019-05-14T04:13:40.828Z,2764.00
2019-05-14T04:14:40.334Z,2800.00
2019-05-14T04:15:40.314Z,2832.00
2019-05-14T04:16:58.537Z,2864.00
2019-05-14T04:17:42.278Z,2900.00
2019-05-14T04:18:40.842Z,2936.00
2019-05-14T04:19:40.284Z,2968.00
2019-05-14T04:20:40.275Z,2996.00
2019-05-14T04:21:40.255Z,3032.00
2019-05-14T04:22:40.273Z,3064.00
2019-05-14T04:23:40.266Z,3096.00
2019-05-14T04:24:41.315Z,3124.00
2019-05-14T04:25:40.213Z,3152.00
2019-05-14T04:26:56.230Z,3188.00
2019-05-14T04:27:41.199Z,3224.00
2019-05-14T04:28:40.202Z,3256.00
2019-05-14T04:29:40.166Z,3280.00
2019-05-14T04:30:40.277Z,3308.00
2019-05-14T04:31:40.151Z,3344.00
2019-05-14T04:32:40.208Z,3380.00
2019-05-14T04:33:40.149Z,3416.00
2019-05-14T04:34:40.126Z,3452.00
2019-05-14T04:35:40.260Z,3484.00
2019-05-14T04:36:40.100Z,3524.00
2019-05-14T04:37:40.255Z,3556.00
2019-05-14T04:38:41.160Z,3592.00
2019-05-14T04:39:40.076Z,3620.00
2019-05-14T04:40:40.139Z,3656.00
2019-05-14T04:41:40.037Z,3692.00
2019-05-14T04:42:40.470Z,3728.00
2019-05-14T04:43:40.499Z,3772.00
2019-05-14T04:44:40.728Z,3812.00
2019-05-14T04:45:40.017Z,3860.00
2019-05-14T04:46:39.992Z,3900.00
2019-05-14T04:47:42.003Z,3952.00
2019-05-14T04:48:43.572Z,4004.00
2019-05-14T04:49:40.273Z,4032.00
2019-05-14T04:50:40.617Z,4044.00
2019-05-14T04:51:39.969Z,4076.00
2019-05-14T04:52:40.641Z,4116.00
2019-05-14T04:53:39.913Z,4128.00
2019-05-14T04:54:39.928Z,4124.00
2019-05-14T04:55:40.259Z,4144.00
2019-05-14T04:56:40.302Z,4164.00
2019-05-14T04:57:39.888Z,4204.00
2019-05-14T04:58:41.263Z,4276.00
2019-05-14T04:59:40.280Z,4328.00
2019-05-14T05:00:39.857Z,4364.00
2019-05-14T05:01:40.367Z,4464.00
2019-05-14T05:02:40.217Z,4496.00
2019-05-14T05:03:40.346Z,4508.00
2019-05-14T05:04:40.991Z,4656.00
2019-05-14T05:05:39.815Z,5064.00
2019-05-14T05:06:39.925Z,5484.00
2019-05-14T05:07:40.526Z,5592.00
2019-05-14T05:08:40.073Z,6972.00
2019-05-14T05:09:40.260Z,6144.00
2019-05-14T05:10:39.987Z,7168.00
2019-05-14T05:11:39.839Z,8552.00
2019-05-14T05:12:39.723Z,7320.00
2019-05-14T05:13:40.083Z,5600.00
2019-05-14T05:14:39.711Z,4968.00
2019-05-14T05:15:39.720Z,4820.00
2019-05-14T05:16:39.675Z,4772.00
2019-05-14T05:17:47.031Z,4756.00
2019-05-14T05:18:40.665Z,4768.00
2019-05-14T05:19:44.771Z,4784.00
2019-05-14T05:20:40.647Z,4832.00
2019-05-14T05:21:39.622Z,4872.00
2019-05-14T05:22:39.937Z,4920.00
2019-05-14T05:23:39.592Z,5120.00
2019-05-14T05:24:39.584Z,5448.00
2019-05-14T05:25:39.588Z,5768.00
2019-05-14T05:26:39.583Z,5992.00
2019-05-14T05:27:39.566Z,6140.00
2019-05-14T05:28:39.544Z,6324.00
2019-05-14T05:29:39.539Z,6524.00
2019-05-14T05:30:39.525Z,6812.00
2019-05-14T05:31:39.539Z,7256.00
2019-05-14T05:32:39.494Z,9536.00
2019-05-14T05:33:39.486Z,15520.00
2019-05-14T05:34:39.476Z,19200.00
2019-05-14T05:35:42.354Z,19648.00
2019-05-14T05:36:39.483Z,22080.00
2019-05-14T05:37:39.441Z,24672.00
2019-05-14T05:38:39.745Z,25216.00
2019-05-14T05:39:39.430Z,24864.00
2019-05-14T05:40:39.418Z,20192.00
2019-05-14T05:41:39.404Z,13212.00
2019-05-14T05:42:39.417Z,15880.00
2019-05-14T05:43:39.643Z,9660.00
2019-05-14T05:44:39.639Z,29920.00
2019-05-14T05:45:39.361Z,30912.00
2019-05-14T05:46:39.352Z,29504.00
2019-05-14T05:47:53.139Z,31520.00
2019-05-14T05:48:40.341Z,30880.00
2019-05-14T05:49:39.329Z,30784.00
2019-05-14T05:50:39.311Z,32032.00
2019-05-14T05:51:40.093Z,33376.00
2019-05-14T05:52:39.285Z,33856.00
2019-05-14T05:53:39.660Z,35936.00
2019-05-14T05:54:39.272Z,36448.00
2019-05-14T05:55:39.579Z,33856.00
2019-05-14T05:56:39.238Z,19424.00
2019-05-14T05:57:39.569Z,31488.00
2019-05-14T05:58:39.975Z,34400.00
2019-05-14T05:59:39.534Z,35776.00
2019-05-14T06:00:40.113Z,34720.00
2019-05-14T06:01:45.739Z,34688.00
2019-05-14T06:02:40.247Z,37664.00
2019-05-14T06:03:39.447Z,34368.00
2019-05-14T06:04:39.606Z,10392.00
2019-05-14T06:05:39.228Z,15060.00
2019-05-14T06:06:39.182Z,36704.00
2019-05-14T06:07:39.660Z,10180.00
2019-05-14T06:08:39.114Z,7992.00
2019-05-14T06:09:39.115Z,10068.00
2019-05-14T06:10:39.935Z,9872.00
2019-05-14T06:11:39.089Z,12140.00
2019-05-14T06:12:39.158Z,13220.00
2019-05-14T06:13:39.386Z,14300.00
2019-05-14T06:14:39.049Z,15796.00
2019-05-14T06:15:45.635Z,16352.00
2019-05-14T06:16:40.030Z,16524.00
2019-05-14T06:17:39.467Z,16508.00
2019-05-14T06:18:39.591Z,16968.00
2019-05-14T06:19:39.007Z,19552.00
2019-05-14T06:20:38.989Z,26432.00
2019-05-14T06:21:39.795Z,53056.00
2019-05-14T06:22:38.962Z,28416.00
2019-05-14T06:23:38.998Z,21760.00
2019-05-14T06:24:39.206Z,19648.00
2019-05-14T06:25:40.087Z,22688.00
2019-05-14T06:26:38.922Z,28192.00
2019-05-14T06:27:38.907Z,32384.00
2019-05-14T06:28:40.933Z,49952.00
2019-05-14T06:29:38.892Z,35008.00
2019-05-14T06:30:39.602Z,26656.00
2019-05-14T06:31:38.915Z,47168.00
2019-05-14T06:32:39.063Z,21280.00
2019-05-14T06:33:39.530Z,15040.00
2019-05-14T06:34:38.848Z,46944.00
2019-05-14T06:35:39.697Z,53920.00
2019-05-14T06:36:39.673Z,63616.00
2019-05-14T06:37:38.802Z,56992.00
2019-05-14T06:38:39.140Z,17188.00
2019-05-14T06:39:39.280Z,13924.00
2019-05-14T06:40:39.481Z,12832.00
2019-05-14T06:41:42.629Z,12932.00
2019-05-14T06:42:39.417Z,12560.00
2019-05-14T06:43:39.414Z,12092.00
2019-05-14T06:44:38.843Z,11300.00
2019-05-14T06:45:39.073Z,10272.00
2019-05-14T06:46:39.221Z,9352.00
2019-05-14T06:47:38.688Z,10276.00
2019-05-14T06:48:39.609Z,11668.00
2019-05-14T06:49:38.764Z,13604.00
2019-05-14T06:50:39.303Z,53440.00
2019-05-14T06:51:39.513Z,76800.00
2019-05-14T06:52:39.015Z,71296.00
2019-05-14T06:53:39.394Z,65536.00
2019-05-14T06:54:38.936Z,70912.00
2019-05-14T06:55:39.327Z,69440.00
2019-05-14T06:56:38.768Z,51648.00
2019-05-14T06:57:39.377Z,55968.00
2019-05-14T06:58:39.060Z,33888.00
2019-05-14T06:59:38.568Z,34848.00
2019-05-14T07:00:39.410Z,27776.00
2019-05-14T07:01:38.645Z,64960.00
2019-05-14T07:02:43.646Z,29056.00
2019-05-14T07:03:39.524Z,25504.00
2019-05-14T07:04:39.514Z,22528.00
2019-05-14T07:05:39.125Z,23680.00
2019-05-14T07:06:39.075Z,21920.00
2019-05-14T07:07:40.484Z,18912.00
2019-05-14T07:08:39.338Z,27872.00
2019-05-14T07:09:38.659Z,26336.00
2019-05-14T07:10:39.434Z,24896.00
2019-05-14T07:11:38.939Z,25376.00
2019-05-14T07:12:38.894Z,22720.00
2019-05-14T07:13:38.752Z,22240.00
2019-05-14T07:14:38.977Z,25376.00
2019-05-14T07:15:38.769Z,39328.00
2019-05-14T07:16:39.002Z,32544.00
2019-05-14T07:17:38.714Z,23776.00
2019-05-14T07:18:50.757Z,21984.00
2019-05-14T07:19:39.344Z,18880.00
2019-05-14T07:20:39.274Z,37792.00
2019-05-14T07:21:38.483Z,25664.00
2019-05-14T07:22:38.980Z,70048.00
2019-05-14T07:23:38.669Z,22688.00
2019-05-14T07:24:40.531Z,59200.00
2019-05-14T07:25:39.292Z,42592.00
2019-05-14T07:26:38.970Z,26176.00
2019-05-14T07:27:39.186Z,29984.00
2019-05-14T07:28:42.137Z,27616.00
2019-05-14T07:29:38.934Z,19520.00
2019-05-14T07:30:39.650Z,26432.00
2019-05-14T07:31:38.580Z,21824.00
2019-05-14T07:32:39.488Z,18656.00
2019-05-14T07:33:38.996Z,15280.00
2019-05-14T07:34:38.915Z,13688.00
2019-05-14T07:35:38.372Z,23072.00
2019-05-14T07:36:38.826Z,25312.00
2019-05-14T07:37:39.530Z,43520.00
2019-05-14T07:38:39.246Z,29728.00
2019-05-14T07:39:38.684Z,101184.00
2019-05-14T07:40:38.801Z,93472.00
2019-05-14T07:41:38.983Z,91520.00
2019-05-14T07:42:38.501Z,17120.00
2019-05-14T07:43:39.344Z,12716.00
2019-05-14T07:44:39.029Z,12620.00
2019-05-14T07:45:38.629Z,14788.00
2019-05-14T07:46:38.932Z,15620.00
2019-05-14T07:47:38.792Z,25248.00
2019-05-14T07:48:39.251Z,31680.00
2019-05-14T07:49:38.654Z,18976.00
2019-05-14T07:50:39.714Z,17092.00
2019-05-14T07:51:38.816Z,16972.00
2019-05-14T07:52:45.463Z,16312.00
2019-05-14T07:53:42.374Z,18144.00
2019-05-14T07:54:38.958Z,18400.00
2019-05-14T07:55:38.579Z,14220.00
2019-05-14T07:56:38.462Z,11380.00
2019-05-14T07:57:39.281Z,10412.00
2019-05-14T07:58:38.647Z,13744.00
2019-05-14T07:59:38.234Z,16920.00
2019-05-14T08:00:40.288Z,16464.00
2019-05-14T08:01:38.871Z,18048.00
2019-05-14T08:02:38.119Z,22432.00
2019-05-14T08:03:38.427Z,23744.00
2019-05-14T08:04:38.255Z,21568.00
2019-05-14T08:05:38.942Z,22688.00
2019-05-14T08:06:39.385Z,22432.00
2019-05-14T08:07:38.838Z,23264.00
2019-05-14T08:08:38.588Z,22304.00
2019-05-14T08:09:38.927Z,23200.00
2019-05-14T08:10:39.220Z,25216.00
2019-05-14T08:11:38.738Z,31808.00
2019-05-14T08:12:39.162Z,37088.00
2019-05-14T08:13:39.077Z,118304.00
2019-05-14T08:14:46.263Z,65184.00
2019-05-14T08:15:38.851Z,74848.00
2019-05-14T08:16:38.248Z,28480.00
2019-05-14T08:17:38.786Z,30912.00
2019-05-14T08:18:39.638Z,31680.00
2019-05-14T08:19:38.558Z,36352.00
2019-05-14T08:20:38.123Z,107904.00
2019-05-14T08:21:38.813Z,30208.00
2019-05-14T08:22:38.308Z,28160.00
2019-05-14T08:23:39.127Z,31200.00
2019-05-14T08:24:38.523Z,32512.00
2019-05-14T08:25:38.967Z,32576.00
2019-05-14T08:26:38.200Z,57952.00
2019-05-14T08:27:38.848Z,28032.00
2019-05-14T08:28:38.238Z,25472.00
2019-05-14T08:29:40.063Z,23264.00
2019-05-14T08:30:38.898Z,23264.00
2019-05-14T08:31:38.376Z,25376.00
2019-05-14T08:32:39.009Z,32512.00
2019-05-14T08:33:39.751Z,27104.00
2019-05-14T08:34:38.942Z,25664.00
2019-05-14T08:35:39.518Z,25728.00
2019-05-14T08:36:38.032Z,24832.00
2019-05-14T08:37:38.692Z,24768.00
2019-05-14T08:38:38.246Z,22208.00
2019-05-14T08:39:39.242Z,25728.00
2019-05-14T08:40:38.268Z,72000.00
2019-05-14T08:41:38.369Z,40128.00
2019-05-14T08:42:38.278Z,34848.00
2019-05-14T08:43:39.633Z,107040.00
2019-05-14T08:44:38.938Z,114400.00
2019-05-14T08:45:38.901Z,39392.00
2019-05-14T08:46:38.927Z,124224.00
2019-05-14T08:47:39.128Z,118432.00
2019-05-14T08:48:38.847Z,115072.00
2019-05-14T08:49:45.535Z,118400.00
2019-05-14T08:50:38.842Z,121440.00
2019-05-14T08:51:38.761Z,34112.00
2019-05-14T08:52:39.337Z,34848.00
2019-05-14T08:53:38.625Z,26176.00
2019-05-14T08:54:39.081Z,20960.00
2019-05-14T08:55:38.224Z,18336.00
2019-05-14T08:56:38.948Z,19488.00
2019-05-14T08:57:38.706Z,26048.00
2019-05-14T08:58:38.569Z,24960.00
2019-05-14T08:59:39.647Z,31296.00
2019-05-14T09:00:38.690Z,20832.00
2019-05-14T09:01:38.742Z,16588.00
2019-05-14T09:02:39.309Z,14796.00
2019-05-14T09:03:39.381Z,14852.00
2019-05-14T09:04:41.952Z,17728.00
2019-05-14T09:05:38.724Z,52416.00
2019-05-14T09:06:38.494Z,123296.00
2019-05-14T09:07:38.409Z,29376.00
2019-05-14T09:08:39.128Z,39616.00
2019-05-14T09:09:38.200Z,28896.00
2019-05-14T09:10:39.996Z,25632.00
2019-05-14T09:11:43.979Z,25856.00
2019-05-14T09:12:38.763Z,27232.00
2019-05-14T09:13:38.295Z,29568.00
2019-05-14T09:14:38.828Z,22144.00
2019-05-14T09:15:38.463Z,22016.00
2019-05-14T09:16:46.261Z,23232.00
2019-05-14T09:17:39.038Z,19968.00
2019-05-14T09:18:38.455Z,16592.00
2019-05-14T09:19:39.491Z,15296.00
2019-05-14T09:20:38.240Z,16616.00
2019-05-14T09:21:39.648Z,17888.00
2019-05-14T09:22:39.529Z,16580.00
2019-05-14T09:23:39.104Z,18368.00
2019-05-14T09:24:38.746Z,17040.00
2019-05-14T09:25:45.649Z,37472.00
2019-05-14T09:26:39.048Z,40000.00
2019-05-14T09:27:38.773Z,119488.00
2019-05-14T09:28:39.232Z,53056.00
2019-05-14T09:29:39.211Z,40960.00
2019-05-14T09:30:38.144Z,27712.00
2019-05-14T09:31:39.085Z,29920.00
2019-05-14T09:32:38.799Z,34560.00
2019-05-14T09:33:38.929Z,151200.00
2019-05-14T09:34:39.087Z,45568.00
2019-05-14T09:35:38.649Z,38144.00
2019-05-14T09:36:39.310Z,85312.00
2019-05-14T09:37:39.310Z,27648.00
2019-05-14T09:38:41.707Z,71104.00
2019-05-14T09:39:38.558Z,43232.00
2019-05-14T09:40:39.455Z,35424.00
2019-05-14T09:41:38.761Z,27552.00
2019-05-14T09:42:39.366Z,24608.00
2019-05-14T09:43:39.027Z,20864.00
2019-05-14T09:44:38.749Z,19680.00
2019-05-14T09:45:38.651Z,20736.00
2019-05-14T09:46:38.466Z,31968.00
2019-05-14T09:47:38.762Z,93760.00
2019-05-14T09:48:37.997Z,45248.00
2019-05-14T09:49:38.898Z,31424.00
2019-05-14T09:50:38.385Z,33568.00
2019-05-14T09:51:38.366Z,93472.00
2019-05-14T09:52:39.017Z,84640.00
2019-05-14T09:53:38.371Z,151776.00
2019-05-14T09:54:39.406Z,144608.00
2019-05-14T09:55:38.828Z,144768.00
2019-05-14T09:56:39.353Z,143968.00
2019-05-14T09:57:38.714Z,147776.00
2019-05-14T09:58:38.821Z,147488.00
2019-05-14T09:59:38.490Z,147264.00
2019-05-14T10:00:38.779Z,145760.00
2019-05-14T10:01:38.378Z,139424.00
2019-05-14T10:02:39.024Z,144672.00
2019-05-14T10:03:38.862Z,112000.00
2019-05-14T10:04:38.909Z,163136.00
2019-05-14T10:05:36.577Z,97984.00
2019-05-14T10:06:39.029Z,93376.00
2019-05-14T10:07:39.024Z,31456.00
2019-05-14T10:08:38.830Z,20928.00
2019-05-14T10:09:38.998Z,16232.00
2019-05-14T10:10:39.642Z,12664.00
2019-05-14T10:11:38.347Z,11188.00
2019-05-14T10:12:44.735Z,10820.00
2019-05-14T10:13:39.252Z,10452.00
2019-05-14T10:14:39.045Z,10672.00
2019-05-14T10:15:38.948Z,11964.00
2019-05-14T10:16:38.532Z,13104.00
2019-05-14T10:17:39.199Z,14568.00
2019-05-14T10:18:38.048Z,18272.00
2019-05-14T10:19:39.322Z,23456.00
2019-05-14T10:20:45.175Z,80480.00
2019-05-14T10:21:38.881Z,124320.00
2019-05-14T10:22:36.395Z,159296.00
2019-05-14T10:23:38.703Z,158016.00
2019-05-14T10:24:38.669Z,70848.00
2019-05-14T10:25:40.264Z,53024.00
2019-05-14T10:26:39.479Z,169952.00
2019-05-14T10:27:36.352Z,92608.00
2019-05-14T10:28:36.333Z,88032.00
2019-05-14T10:29:36.325Z,40128.00
2019-05-14T10:30:36.320Z,34272.00
2019-05-14T10:31:36.311Z,34880.00
2019-05-14T10:32:36.298Z,28064.00
2019-05-14T10:33:36.279Z,24864.00
2019-05-14T10:34:36.265Z,22432.00
2019-05-14T10:35:36.261Z,21312.00
2019-05-14T10:36:36.274Z,20000.00
2019-05-14T10:37:39.819Z,18720.00
2019-05-14T10:38:38.556Z,18592.00
2019-05-14T10:39:38.829Z,20192.00
2019-05-14T10:40:38.560Z,21760.00
2019-05-14T10:41:38.428Z,23968.00
2019-05-14T10:42:36.248Z,26176.00
2019-05-14T10:43:38.963Z,31040.00
2019-05-14T10:44:38.493Z,159040.00
2019-05-14T10:45:38.281Z,160384.00
2019-05-14T10:46:38.468Z,44032.00
2019-05-14T10:47:38.684Z,35552.00
2019-05-14T10:48:36.142Z,27488.00
2019-05-14T10:49:38.499Z,23232.00
2019-05-14T10:50:52.271Z,19200.00
2019-05-14T10:51:38.877Z,15344.00
2019-05-14T10:52:36.099Z,11964.00
2019-05-14T10:53:36.071Z,9772.00
2019-05-14T10:54:36.055Z,8660.00
2019-05-14T10:55:38.428Z,8748.00
2019-05-14T10:56:36.053Z,9412.00
2019-05-14T10:57:36.024Z,10956.00
2019-05-14T10:58:36.024Z,12836.00
2019-05-14T10:59:36.014Z,14372.00
2019-05-14T11:00:36.016Z,15956.00
2019-05-14T11:01:35.988Z,17132.00
2019-05-14T11:02:38.530Z,18848.00
2019-05-14T11:03:38.595Z,20960.00
2019-05-14T11:04:35.949Z,23072.00
2019-05-14T11:05:35.962Z,72608.00
2019-05-14T11:06:38.589Z,28800.00
2019-05-14T11:07:41.452Z,39072.00
2019-05-14T11:08:38.677Z,38240.00
2019-05-14T11:09:37.904Z,68320.00
2019-05-14T11:10:35.893Z,25600.00
2019-05-14T11:11:38.086Z,21600.00
2019-05-14T11:12:35.879Z,18944.00
2019-05-14T11:13:35.857Z,17016.00
2019-05-14T11:14:38.509Z,16048.00
2019-05-14T11:15:35.832Z,15752.00
2019-05-14T11:16:35.843Z,15648.00
2019-05-14T11:17:35.808Z,15824.00
2019-05-14T11:18:35.801Z,16804.00
2019-05-14T11:19:35.808Z,19840.00
2019-05-14T11:20:35.801Z,22464.00
2019-05-14T11:21:35.776Z,25760.00
2019-05-14T11:22:35.772Z,29952.00
2019-05-14T11:23:38.421Z,29792.00
2019-05-14T11:24:38.310Z,32320.00
2019-05-14T11:25:38.171Z,50336.00
2019-05-14T11:26:35.710Z,52384.00
2019-05-14T11:27:35.707Z,176576.00
2019-05-14T11:28:35.699Z,74432.00
2019-05-14T11:29:35.693Z,61920.00
2019-05-14T11:30:35.668Z,45440.00
2019-05-14T11:31:35.666Z,57376.00
2019-05-14T11:32:38.322Z,50048.00
2019-05-14T11:33:35.642Z,173824.00
2019-05-14T11:34:35.679Z,176480.00
2019-05-14T11:35:35.616Z,43584.00
2019-05-14T11:36:35.605Z,33504.00
2019-05-14T11:37:35.594Z,30496.00
2019-05-14T11:38:37.428Z,27744.00
2019-05-14T11:39:37.820Z,24864.00
2019-05-14T11:40:38.543Z,23328.00
2019-05-14T11:41:35.559Z,23968.00
2019-05-14T11:42:35.548Z,33120.00
2019-05-14T11:43:35.533Z,79008.00
2019-05-14T11:44:38.002Z,112000.00
2019-05-14T11:45:35.543Z,39936.00
2019-05-14T11:46:47.459Z,27488.00
2019-05-14T11:47:37.997Z,22848.00
2019-05-14T11:48:35.482Z,19680.00
2019-05-14T11:49:35.473Z,17856.00
2019-05-14T11:50:35.459Z,17120.00
2019-05-14T11:51:58.880Z,16728.00
2019-05-14T11:52:38.682Z,17280.00
2019-05-14T11:53:35.432Z,18336.00
2019-05-14T11:54:35.432Z,20352.00
2019-05-14T11:55:35.405Z,21568.00
2019-05-14T11:56:35.413Z,23232.00
2019-05-14T11:57:35.381Z,22816.00
2019-05-14T11:58:35.383Z,23648.00
2019-05-14T11:59:35.367Z,24000.00
2019-05-14T12:00:35.355Z,23872.00
2019-05-14T12:01:35.365Z,23456.00
2019-05-14T12:02:35.330Z,22144.00
2019-05-14T12:03:35.327Z,19776.00
2019-05-14T12:04:35.320Z,17472.00
2019-05-14T12:05:35.305Z,15976.00
2019-05-14T12:06:35.294Z,15252.00
2019-05-14T12:07:35.291Z,15020.00
2019-05-14T12:08:35.266Z,15476.00
2019-05-14T12:09:35.265Z,16844.00